METAR Data
IDs: Format: Raw Decoded Include TAF

Data at: 2241 UTC 30 Jun 2022

METAR for:KBBP (Bennettsville/Marlbo, SC, US)
Text:KBBP 302235Z AUTO 17004KT 10SM SCT065 OVC075 26/22 A3015 RMK AO2
Temperature: 26.0°C ( 79°F)
Dewpoint: 22.0°C ( 72°F) [RH = 79%]
Pressure (altimeter):30.15 inches Hg (1021.1 mb)
Winds:from the S (170 degrees) at 5 MPH (4 knots; 2.1 m/s)
Visibility:10 or more sm (16+ km)
Ceiling:7500 feet AGL
Clouds: scattered clouds at 6500 feet AGL, overcast cloud deck at 7500 feet AGL
QC Flag:automated observation with no human augmentation

TAF for:KBBP (Bennettsville/Marlbo, SC, US)
Text:No data found